createdAt,value
2022-10-06T00:01:24.136Z,12.61
2022-10-06T00:06:30.960Z,12.62
2022-10-06T00:11:35.548Z,12.66
2022-10-06T00:16:58.931Z,12.68
2022-10-06T00:22:03.769Z,12.71
2022-10-06T00:27:06.401Z,12.72
2022-10-06T00:32:24.669Z,12.71
2022-10-06T00:37:38.261Z,12.69
2022-10-06T00:43:03.035Z,12.64
2022-10-06T00:48:31.258Z,12.58
2022-10-06T00:54:14.160Z,12.55
2022-10-06T00:59:19.320Z,12.52
2022-10-06T01:04:45.891Z,12.48
2022-10-06T01:09:50.908Z,12.44
2022-10-06T01:15:36.742Z,12.38
2022-10-06T01:21:18.240Z,12.32
2022-10-06T01:26:24.555Z,12.27
2022-10-06T01:31:28.465Z,12.22
2022-10-06T01:36:33.612Z,12.19
2022-10-06T01:42:04.533Z,12.15
2022-10-06T01:47:48.164Z,12.12
2022-10-06T01:52:50.428Z,12.07
2022-10-06T01:57:53.035Z,12.00
2022-10-06T02:03:04.771Z,11.93
2022-10-06T02:08:14.743Z,11.86
2022-10-06T02:14:20.176Z,11.80
2022-10-06T02:19:45.583Z,11.74
2022-10-06T02:24:50.466Z,11.71
2022-10-06T02:30:06.058Z,11.67
2022-10-06T02:35:22.758Z,11.64
2022-10-06T02:40:25.788Z,11.64
2022-10-06T02:46:16.002Z,11.62
2022-10-06T02:51:29.881Z,11.58
2022-10-06T02:56:38.007Z,11.55
2022-10-06T03:01:40.567Z,11.51
2022-10-06T03:07:35.324Z,11.50
2022-10-06T03:12:38.037Z,11.51
2022-10-06T03:17:41.595Z,11.44
2022-10-06T03:22:43.728Z,11.40
2022-10-06T03:27:46.049Z,11.39
2022-10-06T03:32:48.326Z,11.38
2022-10-06T03:37:50.496Z,11.40
2022-10-06T03:42:53.713Z,11.41
2022-10-06T03:48:01.500Z,11.43
2022-10-06T03:53:03.848Z,11.47
2022-10-06T03:58:18.792Z,11.49
2022-10-06T04:04:22.428Z,11.46
2022-10-06T04:09:30.755Z,11.42
2022-10-06T04:14:36.146Z,11.40
2022-10-06T04:20:02.602Z,11.38
2022-10-06T04:25:25.058Z,11.34
2022-10-06T04:30:37.484Z,11.30
2022-10-06T04:35:40.116Z,11.26
2022-10-06T04:41:18.891Z,11.22
2022-10-06T04:46:42.018Z,11.16
2022-10-06T04:51:45.671Z,11.08
2022-10-06T04:56:51.648Z,11.06
2022-10-06T05:01:56.828Z,11.02
2022-10-06T05:07:02.159Z,10.98
2022-10-06T05:12:11.601Z,10.97
2022-10-06T05:17:54.592Z,10.94
2022-10-06T05:22:57.168Z,10.96
2022-10-06T05:28:02.128Z,11.00
2022-10-06T05:33:33.905Z,11.07
2022-10-06T05:38:37.816Z,11.18
2022-10-06T05:43:46.111Z,11.28
2022-10-06T05:48:55.677Z,11.35
2022-10-06T05:54:59.922Z,11.41
2022-10-06T06:00:05.295Z,11.49
2022-10-06T06:05:27.857Z,11.56
2022-10-06T06:10:30.479Z,11.62
2022-10-06T06:15:54.765Z,11.74
2022-10-06T06:21:18.751Z,11.94
2022-10-06T06:26:24.931Z,12.10
2022-10-06T06:31:31.515Z,12.22
2022-10-06T06:36:53.761Z,12.27
2022-10-06T06:42:05.240Z,12.29
2022-10-06T06:47:38.048Z,12.32
2022-10-06T06:53:02.568Z,12.47
2022-10-06T06:58:07.136Z,12.70
2022-10-06T07:09:08.032Z,13.16
2022-10-06T07:14:14.345Z,13.34
2022-10-06T07:19:44.589Z,13.59
2022-10-06T07:25:27.953Z,13.81
2022-10-06T07:30:40.869Z,14.13
2022-10-06T07:35:58.078Z,14.60
2022-10-06T07:41:20.263Z,14.95
2022-10-06T07:46:34.619Z,15.19
2022-10-06T07:52:17.433Z,15.17
2022-10-06T07:57:25.465Z,15.11
2022-10-06T08:02:34.730Z,15.26
2022-10-06T08:08:19.324Z,15.40
2022-10-06T08:13:27.152Z,15.56
2022-10-06T08:18:46.930Z,15.76
2022-10-06T08:23:56.730Z,16.01
2022-10-06T08:29:03.453Z,16.19
2022-10-06T08:34:11.971Z,16.34
2022-10-06T08:39:18.233Z,16.49
2022-10-06T08:44:33.725Z,16.70
2022-10-06T08:49:45.823Z,16.89
2022-10-06T08:55:17.936Z,17.09
2022-10-06T09:00:22.176Z,17.34
2022-10-06T09:05:31.903Z,17.49
2022-10-06T09:11:01.459Z,17.61
2022-10-06T09:16:10.342Z,17.74
2022-10-06T09:21:50.304Z,17.90
2022-10-06T09:26:56.646Z,18.07
2022-10-06T09:32:06.719Z,18.21
2022-10-06T09:37:15.806Z,18.36
2022-10-06T09:42:32.820Z,18.54
2022-10-06T09:47:45.476Z,18.72
2022-10-06T09:53:40.831Z,18.81
2022-10-06T09:58:57.500Z,18.92
2022-10-06T10:04:19.923Z,19.07
2022-10-06T10:09:49.076Z,19.17
2022-10-06T10:14:56.797Z,19.25
2022-10-06T10:20:03.433Z,19.34
2022-10-06T10:25:41.262Z,19.46
2022-10-06T10:30:53.092Z,19.64
2022-10-06T10:36:06.419Z,19.78
2022-10-06T10:41:25.988Z,19.89
2022-10-06T10:46:38.148Z,20.03
2022-10-06T10:51:54.050Z,20.13
2022-10-06T10:57:21.903Z,20.21
2022-10-06T11:02:24.752Z,20.47
2022-10-06T11:07:51.454Z,20.62
2022-10-06T11:13:25.162Z,20.73
2022-10-06T11:18:47.093Z,20.80
2022-10-06T11:24:04.809Z,20.88
2022-10-06T11:29:19.348Z,20.95
2022-10-06T11:34:21.461Z,20.96
2022-10-06T11:39:34.045Z,20.94
2022-10-06T11:44:44.789Z,21.06
2022-10-06T11:49:56.127Z,21.22
2022-10-06T11:55:26.347Z,21.31
2022-10-06T12:00:43.274Z,21.43
2022-10-06T12:06:00.463Z,21.69
2022-10-06T12:11:02.519Z,21.84
2022-10-06T12:21:53.179Z,21.84
2022-10-06T12:27:21.952Z,21.77
2022-10-06T12:32:48.948Z,21.70
2022-10-06T12:37:54.735Z,21.72
2022-10-06T12:43:18.487Z,21.70
2022-10-06T12:48:20.455Z,21.67
2022-10-06T12:53:32.857Z,21.59
2022-10-06T12:58:34.974Z,21.66
2022-10-06T13:03:37.599Z,21.63
2022-10-06T13:08:41.812Z,21.49
2022-10-06T13:13:50.306Z,21.45
2022-10-06T13:18:56.316Z,21.39
2022-10-06T13:23:58.396Z,21.31
2022-10-06T13:29:02.931Z,21.27
2022-10-06T13:34:09.622Z,21.24
2022-10-06T13:39:20.399Z,21.18
2022-10-06T13:44:51.969Z,21.18
2022-10-06T13:50:02.173Z,21.16
2022-10-06T13:55:36.857Z,21.08
2022-10-06T14:01:00.965Z,20.90
2022-10-06T14:06:16.787Z,20.65
2022-10-06T14:11:26.522Z,20.31
2022-10-06T14:16:29.606Z,19.98
2022-10-06T14:21:45.002Z,19.74
2022-10-06T14:26:52.370Z,19.46
2022-10-06T14:31:54.106Z,19.21
2022-10-06T14:36:57.318Z,19.00
2022-10-06T14:41:59.314Z,18.84
2022-10-06T14:47:01.032Z,18.66
2022-10-06T14:52:02.749Z,18.53
2022-10-06T14:57:04.965Z,18.41
2022-10-06T15:02:06.704Z,18.31
2022-10-06T15:07:27.219Z,18.17
2022-10-06T15:12:33.757Z,17.93
2022-10-06T15:17:35.895Z,17.72
2022-10-06T15:22:37.649Z,17.52
2022-10-06T15:27:58.343Z,17.37
2022-10-06T15:33:04.347Z,17.24
2022-10-06T15:38:06.074Z,17.12
2022-10-06T15:43:07.793Z,16.99
2022-10-06T15:48:09.506Z,16.84
2022-10-06T15:53:11.236Z,16.70
2022-10-06T15:58:12.928Z,16.53
2022-10-06T16:03:27.378Z,16.35
2022-10-06T16:08:29.208Z,16.13
2022-10-06T16:13:30.917Z,15.95
2022-10-06T16:18:32.686Z,15.77
2022-10-06T16:23:34.409Z,15.61
2022-10-06T16:28:36.197Z,15.43
2022-10-06T16:33:38.167Z,15.28
2022-10-06T16:38:40.663Z,15.15
2022-10-06T16:43:44.030Z,15.01
2022-10-06T16:48:47.920Z,14.88
2022-10-06T16:53:52.311Z,14.74
2022-10-06T16:58:56.473Z,14.63
2022-10-06T17:03:59.935Z,14.52
2022-10-06T17:09:02.173Z,14.40
2022-10-06T17:14:05.004Z,14.27
2022-10-06T17:19:07.499Z,14.13
2022-10-06T17:24:09.604Z,13.98
2022-10-06T17:29:14.301Z,13.85
2022-10-06T17:34:21.211Z,13.71
2022-10-06T17:39:24.730Z,13.58
2022-10-06T17:44:28.624Z,13.45
2022-10-06T17:49:34.662Z,13.34
2022-10-06T17:54:36.518Z,13.26
2022-10-06T17:59:39.104Z,13.15
2022-10-06T18:04:40.834Z,13.06
2022-10-06T18:10:02.453Z,12.96
2022-10-06T18:15:04.482Z,12.83
2022-10-06T18:20:06.413Z,12.72
2022-10-06T18:25:09.973Z,12.60
2022-10-06T18:30:12.067Z,12.49
2022-10-06T18:40:35.452Z,12.28
2022-10-06T18:45:56.102Z,12.17
2022-10-06T18:51:01.850Z,12.05
2022-10-06T18:56:05.141Z,11.94
2022-10-06T19:01:07.457Z,11.84
2022-10-06T19:06:09.973Z,11.75
2022-10-06T19:11:30.539Z,11.66
2022-10-06T19:16:32.330Z,11.56
2022-10-06T19:21:36.956Z,11.46
2022-10-06T19:26:43.731Z,11.33
2022-10-06T19:31:48.021Z,11.21
2022-10-06T19:36:53.961Z,11.09
2022-10-06T19:42:14.606Z,10.97
2022-10-06T19:47:16.678Z,10.84
2022-10-06T19:52:18.929Z,10.72
2022-10-06T19:57:20.680Z,10.61
2022-10-06T20:02:23.421Z,10.50
2022-10-06T20:07:27.931Z,10.40
2022-10-06T20:12:30.192Z,10.30
2022-10-06T20:17:32.053Z,10.21
2022-10-06T20:22:33.817Z,10.11
2022-10-06T20:27:36.022Z,10.02
2022-10-06T20:32:37.810Z,9.95
2022-10-06T20:37:42.184Z,9.88
2022-10-06T20:42:49.210Z,9.82
2022-10-06T20:47:50.972Z,9.77
2022-10-06T20:52:54.661Z,9.69
2022-10-06T20:57:56.666Z,9.62
2022-10-06T21:02:58.537Z,9.54
2022-10-06T21:08:00.295Z,9.48
2022-10-06T21:13:02.059Z,9.42
2022-10-06T21:18:05.715Z,9.36
2022-10-06T21:23:07.522Z,9.32
2022-10-06T21:28:09.322Z,9.25
2022-10-06T21:33:11.114Z,9.17
2022-10-06T21:38:13.023Z,9.10
2022-10-06T21:43:14.820Z,9.04
2022-10-06T21:48:19.553Z,9.00
2022-10-06T21:53:21.870Z,8.95
2022-10-06T21:58:23.710Z,8.91
2022-10-06T22:03:25.492Z,8.84
2022-10-06T22:08:30.662Z,8.79
2022-10-06T22:13:32.702Z,8.72
2022-10-06T22:18:35.459Z,8.65
2022-10-06T22:23:37.383Z,8.58
2022-10-06T22:28:39.862Z,8.50
2022-10-06T22:33:42.964Z,8.44
2022-10-06T22:38:45.022Z,8.37
2022-10-06T22:43:46.987Z,8.30
2022-10-06T22:48:48.729Z,8.24
2022-10-06T22:53:58.988Z,8.17
2022-10-06T22:59:00.796Z,8.11
2022-10-06T23:04:02.654Z,8.04
2022-10-06T23:09:04.690Z,7.98
2022-10-06T23:14:06.519Z,7.91
2022-10-06T23:19:08.351Z,7.85
2022-10-06T23:24:10.197Z,7.79
2022-10-06T23:29:12.363Z,7.73
2022-10-06T23:34:14.112Z,7.68
2022-10-06T23:39:15.934Z,7.63
2022-10-06T23:44:17.652Z,7.57
2022-10-06T23:49:19.349Z,7.51
2022-10-06T23:54:21.210Z,7.45
2022-10-06T23:59:23.692Z,7.39
